Coosawhatchie, South Carolina
Current Conditions -  °F | °C
As of 3:56 AM on Wednesday 22 Oct 2014 (Local Time) from KNBC Reporting Station
Clear Clear  
Wind Chill: 57°   Ceiling: Unl
Heat Index: 57°   Visibility: 10mi
Dew Point: 50°   Wind: 5mph
Humidity: 77%   Direction: 360°N
Pressure: 29.95"   Gusts: NA
Location:  32.59°N, 80.93°W
Report Text: KNBC 220756Z AUTO 36004KT 10SM CLR 14/10 A2995 RMK AO2 SLP141 T01390100 $
Loading
Personal Weather Stations






























Interactive Weather Map
Tropical Storm Tracking
New forecast layout! Learn more

10-Day Weather Forecast

Advertisements
Track Severe Weather on mobile